Cape Lisburne Lrrs Airport
PALU : now visible

Airfield :











YOU CAN JOIN US ON...

 
LOGIN :

Register | Disclaimer

   EN    FR    IT 

 









Legend :    VFR   Marginal VFR   IFR   Intensive IFR   Very Intensive IFR
Visi :
Ceiling :
>= 8 km
>= 3000ft
5 to 8 km
1000 to 3000 ft
1500m to 5 km
500 to 1000 ft
800 to 1500m
200 to 500 ft
< 800m
< 200 ft
Symbols :   Thunderstorms  Fog  Heavy snow  Heavy precipitations  Wind > 20 kt






- Airport Elevation : 16 ft
- IATA code : LUR


PALU - Cape Lisburne Lrrs

CURRENT METAR :
  • 191225Z AUTO 27020G23KT 10SM -SHRASN BKN013 00/M03 A2959 RMK AO2 PK WND 27026/1210 SLP021

EXPIRED METARs :
  • 191205Z AUTO 28017G24KT 10SM BKN030 00/M04 A2960 RMK AO2 SLP023
  • 191155Z AUTO 30022G29KT 10SM -SHRA BKN035 01/M03 A2960 RMK AO2 PK WND 29030/1142 SHRASNB1052E1055SHSNB1121E1135 SLP022 P0000 60000 70017 T00061029 10011 21012 57004
  • 191145Z AUTO 29025G30KT 10SM BKN034 01/M03 A2960 RMK AO2 PK WND 29030/1142 SLP022
  • 191125Z AUTO 28015G24KT 10SM -SHSN BKN028 00/M04 A2961 RMK AO2 PK WND 28028/1110 SLP025
  • 191055Z AUTO 28017G23KT 10SM -SHRASN SCT010 00/M05 A2960 RMK AO2 PK WND 31032/1003 SHRAB0946E1001SHSNB1001E1012B1030E1052SHRASNB1023E1025B1052 SLP024 P0000 T00011048
  • 191045Z AUTO 26016KT 10SM -SHSN SCT010 BKN060 M01/M03 A2961 RMK AO2 PK WND 31032/1003 SLP025
  • 190955Z AUTO 30025G28KT 6SM SHRA FEW019 BKN024 00/M02 A2960 RMK AO2 PK WND 30033/0902 SHRAB0859E0907B0946SHSNB0907E0927SHRASNB0944E0946 SLP024 P0000 T00001018

Expired Forecast.
PAZA FIR / North America



MET'MAP, your aeronautical weather chart ! - Copyright ORBIFLY December 2007 - Disclaimer

ORBIFLY MET'MAP TEAM :

Programming & Development : Alexandra Zaïnal
Concept & original design : Baudouin d'Aumeries
Assistance for programming : Marc-Olivier Méhu
Technical & hardware support : Manuel Goepfert

Contact : metmap@orbifly.com




SOURCES & CREDITS :

   NOAA       Earth
Advisory